Tracy, MN

1:30 PM CST on February 09, 2016 (GMT -0600)
Tracy

Weather History for KTKC - October, 2011

Change the Weather History Date:

Monday, October 3, 2011

  Actual Average (KMML) Record (KMML)
Temperature  
Mean Temperature 67 °F -  
Max Temperature 81 °F 66 °F 88 °F (1967)
Min Temperature 53 °F 41 °F 24 °F (1989)
Cooling Degree Days 2    
Growing Degree Days 17 (Base 50)    
Moisture  
Dew Point 36 °F    
Average Humidity 36    
Maximum Humidity 52    
Minimum Humidity 18    
Precipitation  
Precipitation 0.00 in - - ()
Sea Level Pressure  
Sea Level Pressure 30.13 in    
Wind  
Wind Speed 12 mph (South)    
Max Wind Speed 18 mph    
Max Gust Speed 23 mph    
Visibility 10 miles    
Events      
Averages and records for this station are not official NWS values.
T = Trace of Precipitation, MM = Missing Value Source: NWS Daily Summary

Daily Weather History Graph

Daily Weather History Graph

Search for Another Location

Airport or City:

Trip Planner

Search our weather history database for the weather conditions in past years. The results will help you decide how hot, cold, wet, or windy it might be!

Date:

Astronomy

Oct. 03, 2011 Rise Set
Actual Time 7:22 AM CDT 6:59 PM CDT
Civil Twilight 6:53 AM CDT 7:28 PM CDT
Nautical Twilight 6:19 AM CDT 8:02 PM CDT
Astronomical Twilight 5:45 AM CDT 8:36 PM CDT
Moon 2:32 PM CDT (10/3) 11:52 PM CDT (10/3)
Length of Visible Light 12h 35m
Length of Day
11h 37m
Waxing Crescent, 45% of the Moon is Illuminated
Oct 3
Waxing Crescent
Oct 3
First Quarter
Oct 11
Full
Oct 19
Last Quarter
Oct 26
New

Hourly Weather History & Observations

Time (CDT) Temp. Dew Point Humidity Pressure Visibility Wind Dir Wind Speed Gust Speed Precip Events Conditions
12:13 AM 60.4 °F 37.0 °F 42% 30.12 in 10.0 mi SSW 12.7 mph - N/A   Clear
12:34 AM 60.4 °F 37.2 °F 42% 30.13 in 10.0 mi SSW 11.5 mph 17.3 mph N/A   Clear
12:54 AM 59.7 °F 37.4 °F 43% 30.13 in 10.0 mi SSW 12.7 mph - N/A   Clear
1:14 AM 58.8 °F 37.4 °F 45% 30.13 in 10.0 mi SSW 10.4 mph - N/A   Clear
1:34 AM 57.2 °F 37.4 °F 48% 30.14 in 10.0 mi SSW 11.5 mph - N/A   Clear
2:13 AM 56.8 °F 37.2 °F 48% 30.14 in 10.0 mi SSW 11.5 mph - N/A   Clear
2:34 AM 56.5 °F 37.0 °F 48% 30.14 in 10.0 mi SSW 12.7 mph - N/A   Clear
2:53 AM 55.9 °F 37.0 °F 49% 30.14 in 10.0 mi SSW 11.5 mph - N/A   Clear
3:14 AM 55.9 °F 37.2 °F 49% 30.14 in 10.0 mi SSW 11.5 mph - N/A   Clear
3:34 AM 55.6 °F 37.2 °F 50% 30.14 in 10.0 mi SSW 11.5 mph - N/A   Clear
3:53 AM 55.9 °F 37.4 °F 50% 30.14 in 10.0 mi SSW 12.7 mph - N/A   Clear
4:14 AM 56.1 °F 37.4 °F 49% 30.14 in 10.0 mi SSW 12.7 mph - N/A   Clear
4:34 AM 56.5 °F 37.4 °F 49% 30.14 in 10.0 mi SSW 13.8 mph - N/A   Clear
4:53 AM 56.3 °F 37.6 °F 50% 30.14 in 10.0 mi SSW 13.8 mph - N/A   Clear
5:14 AM 55.8 °F 37.6 °F 51% 30.14 in 10.0 mi SSW 10.4 mph - N/A   Clear
5:34 AM 55.0 °F 37.6 °F 52% 30.14 in 10.0 mi SSW 12.7 mph - N/A   Clear
5:53 AM 55.2 °F 37.4 °F 51% 30.15 in 10.0 mi SSW 12.7 mph - N/A   Clear
6:13 AM 55.0 °F 37.4 °F 51% 30.15 in 10.0 mi SSW 12.7 mph - N/A   Clear
6:34 AM 54.5 °F 37.4 °F 52% 30.15 in 10.0 mi SSW 11.5 mph - N/A   Clear
6:53 AM 54.7 °F 37.2 °F 52% 30.15 in 10.0 mi SSW 11.5 mph - N/A   Clear
7:13 AM 54.3 °F 36.7 °F 51% 30.15 in 10.0 mi SSW 12.7 mph - N/A   Clear
7:34 AM 53.6 °F 36.5 °F 52% 30.15 in 10.0 mi SSW 13.8 mph - N/A   Clear
7:53 AM 54.1 °F 36.1 °F 51% 30.15 in 10.0 mi SSW 11.5 mph 18.4 mph N/A   Clear
8:14 AM 55.9 °F 35.8 °F 47% 30.15 in 10.0 mi SSW 12.7 mph - N/A   Clear
8:34 AM 56.7 °F 36.0 °F 46% 30.16 in 10.0 mi SSW 12.7 mph - N/A   Clear
8:54 AM 59.2 °F 35.2 °F 41% 30.16 in 10.0 mi SSW 18.4 mph - N/A   Clear
9:14 AM 61.7 °F 34.7 °F 36% 30.16 in 10.0 mi SSW 12.7 mph - N/A   Clear
9:33 AM 63.3 °F 35.4 °F 35% 30.16 in 10.0 mi SSW 11.5 mph - N/A   Clear
9:54 AM 66.2 °F 35.8 °F 32% 30.16 in 10.0 mi SSW 16.1 mph 20.7 mph N/A   Clear
10:14 AM 67.5 °F 36.3 °F 32% 30.16 in 10.0 mi SSW 12.7 mph - N/A   Clear
10:54 AM 71.8 °F 36.9 °F 28% 30.16 in 10.0 mi SSW 12.7 mph 20.7 mph N/A   Clear
11:14 AM 73.4 °F 36.7 °F 26% 30.16 in 10.0 mi South 12.7 mph 21.9 mph N/A   Clear
11:34 AM 74.7 °F 36.1 °F 25% 30.15 in 10.0 mi SSW 11.5 mph 20.7 mph N/A   Clear
11:54 AM 76.1 °F 35.8 °F 23% 30.15 in 10.0 mi South 15.0 mph 23.0 mph N/A   Clear
12:13 PM 77.0 °F 35.6 °F 22% 30.14 in 10.0 mi South 11.5 mph 20.7 mph N/A   Clear
12:34 PM 78.1 °F 34.9 °F 21% 30.14 in 10.0 mi SSW 15.0 mph - N/A   Clear
1:14 PM 79.3 °F 35.6 °F 21% 30.14 in 10.0 mi South 16.1 mph 23.0 mph N/A   Clear
1:34 PM 79.7 °F 36.0 °F 21% 30.12 in 10.0 mi SSE 15.0 mph 21.9 mph N/A   Clear
1:53 PM 80.4 °F 35.8 °F 20% 30.11 in 10.0 mi South 12.7 mph - N/A   Clear
2:14 PM 80.4 °F 35.4 °F 20% 30.11 in 10.0 mi South 16.1 mph 21.9 mph N/A   Clear
2:33 PM 81.1 °F 35.4 °F 19% 30.11 in 10.0 mi SSE 15.0 mph 21.9 mph N/A   Clear
3:14 PM 81.3 °F 35.1 °F 19% 30.10 in 10.0 mi South 15.0 mph 19.6 mph N/A   Clear
3:34 PM 81.5 °F 34.7 °F 19% 30.10 in 10.0 mi South 10.4 mph - N/A   Clear
3:54 PM 81.5 °F 34.3 °F 18% 30.09 in 10.0 mi South 13.8 mph 19.6 mph N/A   Clear
4:14 PM 81.5 °F 34.5 °F 18% 30.09 in 10.0 mi SSE 13.8 mph - N/A   Clear
4:34 PM 81.3 °F 34.3 °F 18% 30.09 in 10.0 mi South 13.8 mph 18.4 mph N/A   Clear
5:14 PM 80.6 °F 34.2 °F 19% 30.09 in 10.0 mi South 12.7 mph 16.1 mph N/A   Clear
5:33 PM 79.9 °F 33.6 °F 19% 30.09 in 10.0 mi South 11.5 mph 16.1 mph N/A   Clear
5:54 PM 78.8 °F 33.8 °F 20% 30.10 in 10.0 mi South 10.4 mph - N/A   Clear
6:14 PM 77.4 °F 34.0 °F 21% 30.10 in 10.0 mi South 6.9 mph - N/A   Clear
6:33 PM 75.0 °F 34.7 °F 23% 30.10 in 10.0 mi SSE 6.9 mph - N/A   Clear
6:54 PM 71.4 °F 34.5 °F 26% 30.10 in 10.0 mi SSE 4.6 mph - N/A   Clear
7:14 PM 68.0 °F 34.7 °F 29% 30.11 in 10.0 mi SSE 4.6 mph - N/A   Clear
7:34 PM 66.7 °F 34.2 °F 30% 30.11 in 10.0 mi South 4.6 mph - N/A   Clear
7:54 PM 65.8 °F 34.7 °F 32% 30.11 in 10.0 mi South 5.8 mph - N/A   Clear
8:14 PM 63.3 °F 34.5 °F 34% 30.11 in 10.0 mi SSE 5.8 mph - N/A   Clear
8:34 PM 61.7 °F 35.1 °F 37% 30.11 in 10.0 mi SSE 8.1 mph - N/A   Clear
8:54 PM 61.2 °F 35.4 °F 38% 30.11 in 10.0 mi SSE 8.1 mph - N/A   Clear
9:14 PM 60.8 °F 35.6 °F 39% 30.11 in 10.0 mi SSE 5.8 mph - N/A   Clear
9:34 PM 61.7 °F 36.7 °F 39% 30.11 in 10.0 mi South 5.8 mph - N/A   Clear
9:54 PM 60.6 °F 36.9 °F 41% 30.12 in 10.0 mi South 4.6 mph - N/A   Clear
10:14 PM 58.3 °F 37.2 °F 45% 30.12 in 10.0 mi South 3.5 mph - N/A   Clear
10:33 PM 58.6 °F 37.0 °F 45% 30.12 in 10.0 mi South 5.8 mph - N/A   Clear
10:53 PM 61.3 °F 37.4 °F 41% 30.12 in 10.0 mi South 8.1 mph - N/A   Clear
11:14 PM 61.7 °F 37.4 °F 41% 30.12 in 10.0 mi South 9.2 mph - N/A   Clear
11:34 PM 60.3 °F 37.4 °F 43% 30.12 in 10.0 mi South 8.1 mph - N/A   Clear
11:54 PM 59.9 °F 37.4 °F 43% 30.12 in 10.0 mi South 8.1 mph - N/A   Clear